Terminal Aerodrome Forecast
Issued by NWS Norman, OK

Home | Current Version | Previous Version | Text Only | Print | Product List | Glossary On
Versions: 1 2 3 4 5 6 7 8 9 10 11 12 13 14 15 16 17 18 19 20 21 22 23 24 25 26 27 28 29 30 31 32
657
FTUS44 KOUN 311752
TAFSPS
TAF
KSPS 311752Z 3118/0118 09008KT P6SM SCT025 BKN130
      TEMPO 3118/3120 5SM -TSRA BKN030CB
     FM312200 12009KT P6SM BKN100
     FM010300 13004KT P6SM BKN025 PROB30 0103/0109 4SM -TSRA
      OVC025CB
     FM010900 03006KT 4SM -TSRA BKN025CB
     FM011500 05008KT P6SM SCT025 BKN100=

USA.gov is the U.S. government's official web portal to all federal, state and local government web resources and services.